sensor_id;sensor_type;location;lat;lon;timestamp;pressure;altitude;pressure_sealevel;temperature;humidity
75221;BME280;63802;53.232;6.570;2023-04-10T00:00:43;102282.88;;;7.08;75.84
75221;BME280;63802;53.232;6.570;2023-04-10T00:03:10;102281.25;;;7.07;75.74
75221;BME280;63802;53.232;6.570;2023-04-10T00:05:35;102284.06;;;7.02;75.70
75221;BME280;63802;53.232;6.570;2023-04-10T00:08:01;102270.59;;;6.97;75.59
75221;BME280;63802;53.232;6.570;2023-04-10T00:10:27;102296.31;;;7.13;75.55
75221;BME280;63802;53.232;6.570;2023-04-10T00:12:56;102296.44;;;7.08;75.46
75221;BME280;63802;53.232;6.570;2023-04-10T00:15:21;102282.03;;;6.94;75.67
75221;BME280;63802;53.232;6.570;2023-04-10T00:17:47;102296.22;;;7.04;76.13
75221;BME280;63802;53.232;6.570;2023-04-10T00:20:19;102294.31;;;7.05;76.17
75221;BME280;63802;53.232;6.570;2023-04-10T00:22:45;102283.84;;;6.98;76.05
75221;BME280;63802;53.232;6.570;2023-04-10T00:25:11;102291.69;;;7.00;76.12
75221;BME280;63802;53.232;6.570;2023-04-10T00:27:36;102273.41;;;6.92;76.22
75221;BME280;63802;53.232;6.570;2023-04-10T00:30:02;102287.47;;;6.94;76.17
75221;BME280;63802;53.232;6.570;2023-04-10T00:32:28;102286.78;;;6.88;75.98
75221;BME280;63802;53.232;6.570;2023-04-10T00:34:57;102270.19;;;6.90;76.49
75221;BME280;63802;53.232;6.570;2023-04-10T00:37:22;102256.31;;;6.78;76.25
75221;BME280;63802;53.232;6.570;2023-04-10T00:39:48;102253.63;;;6.78;76.34
75221;BME280;63802;53.232;6.570;2023-04-10T00:42:14;102246.06;;;6.74;76.53
75221;BME280;63802;53.232;6.570;2023-04-10T00:44:40;102260.56;;;6.84;76.40
75221;BME280;63802;53.232;6.570;2023-04-10T00:47:06;102263.78;;;6.86;76.18
75221;BME280;63802;53.232;6.570;2023-04-10T00:49:33;102253.28;;;6.79;76.50
75221;BME280;63802;53.232;6.570;2023-04-10T00:51:59;102247.78;;;6.70;76.13
75221;BME280;63802;53.232;6.570;2023-04-10T00:54:25;102242.47;;;6.65;76.38
75221;BME280;63802;53.232;6.570;2023-04-10T00:56:51;102244.78;;;6.58;76.56
75221;BME280;63802;53.232;6.570;2023-04-10T00:59:17;102236.22;;;6.51;76.86
75221;BME280;63802;53.232;6.570;2023-04-10T01:01:43;102232.28;;;6.44;77.35
75221;BME280;63802;53.232;6.570;2023-04-10T01:04:09;102224.56;;;6.37;77.23
75221;BME280;63802;53.232;6.570;2023-04-10T01:09:30;102229.31;;;6.45;77.48
75221;BME280;63802;53.232;6.570;2023-04-10T01:12:14;102220.94;;;6.42;77.35
75221;BME280;63802;53.232;6.570;2023-04-10T01:15:04;102221.75;;;6.42;77.88
75221;BME280;63802;53.232;6.570;2023-04-10T01:20:27;102208.41;;;6.32;77.79
75221;BME280;63802;53.232;6.570;2023-04-10T01:25:52;102192.03;;;6.24;78.21
75221;BME280;63802;53.232;6.570;2023-04-10T01:30:46;102213.50;;;6.34;77.84
75221;BME280;63802;53.232;6.570;2023-04-10T01:33:16;102180.06;;;6.11;78.26
75221;BME280;63802;53.232;6.570;2023-04-10T01:35:43;102198.22;;;6.24;78.25
75221;BME280;63802;53.232;6.570;2023-04-10T01:38:12;102194.59;;;6.15;78.23
75221;BME280;63802;53.232;6.570;2023-04-10T01:40:41;102169.47;;;5.96;78.31
75221;BME280;63802;53.232;6.570;2023-04-10T01:43:13;102193.59;;;6.11;78.65
75221;BME280;63802;53.232;6.570;2023-04-10T01:45:39;102194.19;;;6.08;78.83
75221;BME280;63802;53.232;6.570;2023-04-10T01:48:11;102177.53;;;6.01;78.76
75221;BME280;63802;53.232;6.570;2023-04-10T01:50:37;102193.19;;;6.04;78.95
75221;BME280;63802;53.232;6.570;2023-04-10T01:53:05;102172.19;;;5.96;79.07
75221;BME280;63802;53.232;6.570;2023-04-10T01:55:32;102159.03;;;5.89;78.81
75221;BME280;63802;53.232;6.570;2023-04-10T01:57:59;102176.44;;;6.02;79.10
75221;BME280;63802;53.232;6.570;2023-04-10T02:00:26;102167.00;;;5.99;78.92
75221;BME280;63802;53.232;6.570;2023-04-10T02:02:54;102139.41;;;5.79;79.07
75221;BME280;63802;53.232;6.570;2023-04-10T02:05:26;102177.63;;;5.96;79.09
75221;BME280;63802;53.232;6.570;2023-04-10T02:08:04;102170.91;;;6.07;78.86
75221;BME280;63802;53.232;6.570;2023-04-10T02:11:01;102155.84;;;6.01;79.02
75221;BME280;63802;53.232;6.570;2023-04-10T02:13:29;102170.22;;;6.15;78.48
75221;BME280;63802;53.232;6.570;2023-04-10T02:15:59;102157.47;;;6.02;78.13
75221;BME280;63802;53.232;6.570;2023-04-10T02:18:26;102151.34;;;5.96;78.61
75221;BME280;63802;53.232;6.570;2023-04-10T02:20:53;102161.69;;;6.08;78.46
75221;BME280;63802;53.232;6.570;2023-04-10T02:23:21;102145.69;;;5.93;78.28
75221;BME280;63802;53.232;6.570;2023-04-10T02:25:47;102157.84;;;5.95;78.38
75221;BME280;63802;53.232;6.570;2023-04-10T02:28:12;102154.84;;;5.97;78.22
75221;BME280;63802;53.232;6.570;2023-04-10T02:30:38;102157.56;;;5.97;77.96
75221;BME280;63802;53.232;6.570;2023-04-10T02:33:04;102132.22;;;5.88;77.97
75221;BME280;63802;53.232;6.570;2023-04-10T02:35:29;102146.22;;;6.08;77.57
75221;BME280;63802;53.232;6.570;2023-04-10T02:37:55;102120.72;;;5.96;77.53
75221;BME280;63802;53.232;6.570;2023-04-10T02:40:21;102134.81;;;6.12;77.16
75221;BME280;63802;53.232;6.570;2023-04-10T02:42:46;102114.63;;;6.04;77.39
75221;BME280;63802;53.232;6.570;2023-04-10T02:45:12;102113.72;;;5.95;76.78
75221;BME280;63802;53.232;6.570;2023-04-10T02:47:37;102134.09;;;6.06;77.08
75221;BME280;63802;53.232;6.570;2023-04-10T02:50:03;102127.94;;;6.00;76.92
75221;BME280;63802;53.232;6.570;2023-04-10T02:52:29;102120.72;;;5.96;77.28
75221;BME280;63802;53.232;6.570;2023-04-10T02:54:54;102125.63;;;5.94;77.37
75221;BME280;63802;53.232;6.570;2023-04-10T02:57:19;102125.94;;;5.92;77.08
75221;BME280;63802;53.232;6.570;2023-04-10T02:59:49;102122.94;;;5.94;77.42
75221;BME280;63802;53.232;6.570;2023-04-10T03:02:15;102123.66;;;5.99;76.86
75221;BME280;63802;53.232;6.570;2023-04-10T03:04:41;102122.03;;;5.98;76.89
75221;BME280;63802;53.232;6.570;2023-04-10T03:07:07;102133.78;;;5.94;77.41
75221;BME280;63802;53.232;6.570;2023-04-10T03:09:33;102115.84;;;5.79;77.23
75221;BME280;63802;53.232;6.570;2023-04-10T03:11:58;102102.63;;;5.78;77.18
75221;BME280;63802;53.232;6.570;2023-04-10T03:14:24;102117.16;;;5.82;77.20
75221;BME280;63802;53.232;6.570;2023-04-10T03:16:50;102103.59;;;5.68;77.15
75221;BME280;63802;53.232;6.570;2023-04-10T03:19:19;102134.16;;;5.87;77.25
75221;BME280;63802;53.232;6.570;2023-04-10T03:21:45;102138.78;;;5.87;77.15
75221;BME280;63802;53.232;6.570;2023-04-10T03:24:11;102117.75;;;5.79;77.07
75221;BME280;63802;53.232;6.570;2023-04-10T03:26:36;102107.63;;;5.71;77.52
75221;BME280;63802;53.232;6.570;2023-04-10T03:29:02;102106.81;;;5.70;77.67
75221;BME280;63802;53.232;6.570;2023-04-10T03:31:28;102129.34;;;5.84;77.42
75221;BME280;63802;53.232;6.570;2023-04-10T03:33:54;102121.50;;;5.83;77.20
75221;BME280;63802;53.232;6.570;2023-04-10T03:36:20;102113.44;;;5.78;77.58
75221;BME280;63802;53.232;6.570;2023-04-10T03:38:45;102120.97;;;5.81;77.68
75221;BME280;63802;53.232;6.570;2023-04-10T03:41:11;102122.66;;;5.77;77.41
75221;BME280;63802;53.232;6.570;2023-04-10T03:43:37;102121.66;;;5.73;77.29
75221;BME280;63802;53.232;6.570;2023-04-10T03:46:03;102100.84;;;5.55;77.44
75221;BME280;63802;53.232;6.570;2023-04-10T03:48:29;102123.47;;;5.64;77.59
75221;BME280;63802;53.232;6.570;2023-04-10T03:50:55;102121.53;;;5.64;77.68
75221;BME280;63802;53.232;6.570;2023-04-10T03:53:20;102111.59;;;5.60;77.56
75221;BME280;63802;53.232;6.570;2023-04-10T03:55:46;102118.91;;;5.59;77.66
75221;BME280;63802;53.232;6.570;2023-04-10T03:58:12;102112.78;;;5.54;77.48
75221;BME280;63802;53.232;6.570;2023-04-10T04:00:38;102092.91;;;5.45;77.41
75221;BME280;63802;53.232;6.570;2023-04-10T04:03:03;102095.50;;;5.50;77.69
75221;BME280;63802;53.232;6.570;2023-04-10T04:05:30;102092.13;;;5.44;77.69
75221;BME280;63802;53.232;6.570;2023-04-10T04:07:56;102099.31;;;5.35;78.45
75221;BME280;63802;53.232;6.570;2023-04-10T04:10:22;102067.47;;;5.13;78.10
75221;BME280;63802;53.232;6.570;2023-04-10T04:12:48;102085.63;;;5.26;78.39
75221;BME280;63802;53.232;6.570;2023-04-10T04:15:14;102078.72;;;5.20;78.82
75221;BME280;63802;53.232;6.570;2023-04-10T04:17:40;102077.09;;;5.19;78.99
75221;BME280;63802;53.232;6.570;2023-04-10T04:20:06;102068.47;;;5.17;78.72
75221;BME280;63802;53.232;6.570;2023-04-10T04:22:32;102066.19;;;5.24;78.94
75221;BME280;63802;53.232;6.570;2023-04-10T04:25:00;102065.88;;;5.26;78.52
75221;BME280;63802;53.232;6.570;2023-04-10T04:27:26;102053.47;;;5.06;78.87
75221;BME280;63802;53.232;6.570;2023-04-10T04:29:51;102035.50;;;5.15;79.09
75221;BME280;63802;53.232;6.570;2023-04-10T04:32:17;102051.56;;;5.25;79.15
75221;BME280;63802;53.232;6.570;2023-04-10T04:34:42;102054.97;;;5.31;79.06
75221;BME280;63802;53.232;6.570;2023-04-10T04:37:08;102051.19;;;5.32;79.20
75221;BME280;63802;53.232;6.570;2023-04-10T04:39:34;102058.97;;;5.33;79.18
75221;BME280;63802;53.232;6.570;2023-04-10T04:42:00;102046.03;;;5.30;79.24
75221;BME280;63802;53.232;6.570;2023-04-10T04:44:26;102034.59;;;5.20;79.06
75221;BME280;63802;53.232;6.570;2023-04-10T04:46:51;102028.31;;;5.24;79.37
75221;BME280;63802;53.232;6.570;2023-04-10T04:49:17;102035.84;;;5.27;79.23
75221;BME280;63802;53.232;6.570;2023-04-10T04:51:43;102030.34;;;5.32;79.38
75221;BME280;63802;53.232;6.570;2023-04-10T04:54:09;102034.72;;;5.28;79.13
75221;BME280;63802;53.232;6.570;2023-04-10T04:56:35;102038.72;;;5.31;79.42
75221;BME280;63802;53.232;6.570;2023-04-10T04:59:01;102037.16;;;5.30;79.22
75221;BME280;63802;53.232;6.570;2023-04-10T05:01:26;102013.97;;;5.24;79.20
75221;BME280;63802;53.232;6.570;2023-04-10T05:03:54;102034.34;;;5.35;79.46
75221;BME280;63802;53.232;6.570;2023-04-10T05:06:20;102041.28;;;5.41;79.43
75221;BME280;63802;53.232;6.570;2023-04-10T05:08:46;102027.34;;;5.48;79.30
75221;BME280;63802;53.232;6.570;2023-04-10T05:11:11;102021.72;;;5.44;79.18
75221;BME280;63802;53.232;6.570;2023-04-10T05:13:37;102027.97;;;5.58;79.29
75221;BME280;63802;53.232;6.570;2023-04-10T05:16:02;102020.56;;;5.64;78.92
75221;BME280;63802;53.232;6.570;2023-04-10T05:18:28;102014.16;;;5.73;78.26
75221;BME280;63802;53.232;6.570;2023-04-10T05:20:53;102033.63;;;5.89;77.93
75221;BME280;63802;53.232;6.570;2023-04-10T05:23:19;102023.97;;;5.83;77.67
75221;BME280;63802;53.232;6.570;2023-04-10T05:25:44;102028.00;;;5.99;77.49
75221;BME280;63802;53.232;6.570;2023-04-10T05:28:10;101997.31;;;5.90;76.90
75221;BME280;63802;53.232;6.570;2023-04-10T05:30:36;102031.00;;;6.11;76.50
75221;BME280;63802;53.232;6.570;2023-04-10T05:33:01;102020.66;;;6.13;76.33
75221;BME280;63802;53.232;6.570;2023-04-10T05:35:27;102042.44;;;6.22;76.17
75221;BME280;63802;53.232;6.570;2023-04-10T05:37:53;102036.63;;;6.28;75.91
75221;BME280;63802;53.232;6.570;2023-04-10T05:40:19;102031.59;;;6.35;75.51
75221;BME280;63802;53.232;6.570;2023-04-10T05:42:44;102020.75;;;6.35;75.62
75221;BME280;63802;53.232;6.570;2023-04-10T05:45:10;102035.56;;;6.51;75.08
75221;BME280;63802;53.232;6.570;2023-04-10T05:47:39;102019.78;;;6.53;74.39
75221;BME280;63802;53.232;6.570;2023-04-10T05:50:05;102003.81;;;6.52;73.73
75221;BME280;63802;53.232;6.570;2023-04-10T05:52:31;102029.44;;;6.82;73.47
75221;BME280;63802;53.232;6.570;2023-04-10T05:54:57;102014.81;;;6.69;73.34
75221;BME280;63802;53.232;6.570;2023-04-10T05:57:23;102008.97;;;6.75;73.47
75221;BME280;63802;53.232;6.570;2023-04-10T05:59:49;102027.22;;;6.84;73.99
75221;BME280;63802;53.232;6.570;2023-04-10T06:02:15;102008.53;;;6.82;73.58
75221;BME280;63802;53.232;6.570;2023-04-10T06:04:41;102022.53;;;6.98;73.49
75221;BME280;63802;53.232;6.570;2023-04-10T06:07:07;102002.06;;;6.92;73.72
75221;BME280;63802;53.232;6.570;2023-04-10T06:09:33;102011.25;;;7.04;72.63
75221;BME280;63802;53.232;6.570;2023-04-10T06:11:58;102018.09;;;7.24;72.43
75221;BME280;63802;53.232;6.570;2023-04-10T06:14:26;101998.16;;;7.28;71.85
75221;BME280;63802;53.232;6.570;2023-04-10T06:16:52;102003.34;;;7.47;71.53
75221;BME280;63802;53.232;6.570;2023-04-10T06:19:17;102012.69;;;7.63;70.76
75221;BME280;63802;53.232;6.570;2023-04-10T06:21:43;102014.03;;;7.74;70.36
75221;BME280;63802;53.232;6.570;2023-04-10T06:24:08;101994.69;;;7.76;70.41
75221;BME280;63802;53.232;6.570;2023-04-10T06:26:34;102006.41;;;7.93;70.31
75221;BME280;63802;53.232;6.570;2023-04-10T06:29:01;101999.25;;;8.06;70.13
75221;BME280;63802;53.232;6.570;2023-04-10T06:31:27;101969.66;;;8.04;70.01
75221;BME280;63802;53.232;6.570;2023-04-10T06:33:53;101988.38;;;8.23;69.46
75221;BME280;63802;53.232;6.570;2023-04-10T06:36:18;101979.13;;;8.24;69.17
75221;BME280;63802;53.232;6.570;2023-04-10T06:38:45;101967.44;;;8.24;68.80
75221;BME280;63802;53.232;6.570;2023-04-10T06:41:13;101978.19;;;8.29;68.72
75221;BME280;63802;53.232;6.570;2023-04-10T06:43:39;101975.16;;;8.30;69.11
75221;BME280;63802;53.232;6.570;2023-04-10T06:46:04;101975.66;;;8.41;68.91
75221;BME280;63802;53.232;6.570;2023-04-10T06:48:31;101973.59;;;8.46;68.49
75221;BME280;63802;53.232;6.570;2023-04-10T06:50:57;101960.75;;;8.64;68.03
75221;BME280;63802;53.232;6.570;2023-04-10T06:53:27;101965.84;;;8.91;67.80
75221;BME280;63802;53.232;6.570;2023-04-10T06:55:52;101946.16;;;8.94;66.49
75221;BME280;63802;53.232;6.570;2023-04-10T06:58:18;101948.47;;;9.21;65.60
75221;BME280;63802;53.232;6.570;2023-04-10T07:00:44;101962.16;;;9.51;65.32
75221;BME280;63802;53.232;6.570;2023-04-10T07:03:09;101946.13;;;9.49;64.38
75221;BME280;63802;53.232;6.570;2023-04-10T07:05:35;101944.50;;;9.57;63.55
75221;BME280;63802;53.232;6.570;2023-04-10T07:08:01;101942.78;;;9.52;63.34
75221;BME280;63802;53.232;6.570;2023-04-10T07:10:26;101962.81;;;9.48;63.31
75221;BME280;63802;53.232;6.570;2023-04-10T07:12:52;101939.47;;;9.29;63.39
75221;BME280;63802;53.232;6.570;2023-04-10T07:15:18;101940.59;;;9.37;63.67
75221;BME280;63802;53.232;6.570;2023-04-10T07:17:46;101941.66;;;9.44;63.72
75221;BME280;63802;53.232;6.570;2023-04-10T07:20:12;101941.19;;;9.72;63.44
75221;BME280;63802;53.232;6.570;2023-04-10T07:22:40;101936.84;;;9.79;62.93
75221;BME280;63802;53.232;6.570;2023-04-10T07:25:06;101927.16;;;9.90;61.91
75221;BME280;63802;53.232;6.570;2023-04-10T07:27:32;101917.34;;;9.98;61.31
75221;BME280;63802;53.232;6.570;2023-04-10T07:29:58;101910.41;;;10.00;61.21
75221;BME280;63802;53.232;6.570;2023-04-10T07:32:23;101917.34;;;10.19;61.08
75221;BME280;63802;53.232;6.570;2023-04-10T07:34:49;101913.91;;;10.30;60.15
75221;BME280;63802;53.232;6.570;2023-04-10T07:37:15;101903.38;;;10.41;59.49
75221;BME280;63802;53.232;6.570;2023-04-10T07:39:42;101896.25;;;10.48;59.65
75221;BME280;63802;53.232;6.570;2023-04-10T07:42:09;101891.28;;;10.62;59.82
75221;BME280;63802;53.232;6.570;2023-04-10T07:44:35;101893.81;;;10.67;59.06
75221;BME280;63802;53.232;6.570;2023-04-10T07:47:02;101875.88;;;10.78;58.61
75221;BME280;63802;53.232;6.570;2023-04-10T07:49:27;101880.22;;;11.04;58.45
75221;BME280;63802;53.232;6.570;2023-04-10T07:51:56;101861.34;;;11.35;58.47
75221;BME280;63802;53.232;6.570;2023-04-10T07:54:22;101866.59;;;11.76;57.72
75221;BME280;63802;53.232;6.570;2023-04-10T07:56:47;101857.44;;;11.96;55.66
75221;BME280;63802;53.232;6.570;2023-04-10T07:59:16;101845.53;;;12.04;55.91
75221;BME280;63802;53.232;6.570;2023-04-10T08:01:47;101829.63;;;11.94;54.17
75221;BME280;63802;53.232;6.570;2023-04-10T08:04:12;101831.31;;;11.99;54.17
75221;BME280;63802;53.232;6.570;2023-04-10T08:06:38;101850.44;;;12.11;53.73
75221;BME280;63802;53.232;6.570;2023-04-10T08:09:04;101849.81;;;12.18;53.70
75221;BME280;63802;53.232;6.570;2023-04-10T08:11:32;101837.50;;;12.24;53.59
75221;BME280;63802;53.232;6.570;2023-04-10T08:14:00;101826.75;;;12.31;53.09
75221;BME280;63802;53.232;6.570;2023-04-10T08:16:33;101825.53;;;12.44;53.61
75221;BME280;63802;53.232;6.570;2023-04-10T08:19:00;101824.84;;;12.47;53.30
75221;BME280;63802;53.232;6.570;2023-04-10T08:21:27;101821.72;;;12.33;53.24
75221;BME280;63802;53.232;6.570;2023-04-10T08:23:54;101835.47;;;12.21;52.88
75221;BME280;63802;53.232;6.570;2023-04-10T08:26:20;101812.69;;;12.04;53.83
75221;BME280;63802;53.232;6.570;2023-04-10T08:28:50;101820.16;;;12.20;53.83
75221;BME280;63802;53.232;6.570;2023-04-10T08:31:20;101823.34;;;12.22;53.32
75221;BME280;63802;53.232;6.570;2023-04-10T08:33:46;101805.16;;;12.14;52.70
75221;BME280;63802;53.232;6.570;2023-04-10T08:36:12;101798.97;;;12.17;52.65
75221;BME280;63802;53.232;6.570;2023-04-10T08:38:44;101807.34;;;12.08;53.23
75221;BME280;63802;53.232;6.570;2023-04-10T08:41:14;101806.78;;;12.30;52.65
75221;BME280;63802;53.232;6.570;2023-04-10T08:43:40;101800.44;;;12.42;53.11
75221;BME280;63802;53.232;6.570;2023-04-10T08:46:06;101793.69;;;12.83;52.88
75221;BME280;63802;53.232;6.570;2023-04-10T08:51:18;101798.19;;;12.75;51.95
75221;BME280;63802;53.232;6.570;2023-04-10T08:53:49;101797.28;;;12.40;52.11
75221;BME280;63802;53.232;6.570;2023-04-10T08:56:17;101792.50;;;12.37;52.52
75221;BME280;63802;53.232;6.570;2023-04-10T08:58:43;101784.38;;;12.56;52.88
75221;BME280;63802;53.232;6.570;2023-04-10T09:01:09;101780.19;;;12.74;53.06
75221;BME280;63802;53.232;6.570;2023-04-10T09:03:38;101764.09;;;12.88;52.53
75221;BME280;63802;53.232;6.570;2023-04-10T09:06:04;101781.41;;;13.08;51.75
75221;BME280;63802;53.232;6.570;2023-04-10T09:08:31;101782.06;;;13.36;52.01
75221;BME280;63802;53.232;6.570;2023-04-10T09:10:57;101777.38;;;13.56;51.50
75221;BME280;63802;53.232;6.570;2023-04-10T09:13:37;101759.53;;;13.81;50.62
75221;BME280;63802;53.232;6.570;2023-04-10T09:16:03;101761.13;;;13.63;50.33
75221;BME280;63802;53.232;6.570;2023-04-10T09:18:43;101766.56;;;13.43;50.91
75221;BME280;63802;53.232;6.570;2023-04-10T09:21:10;101754.16;;;13.50;50.78
75221;BME280;63802;53.232;6.570;2023-04-10T09:23:36;101730.75;;;13.36;50.78
75221;BME280;63802;53.232;6.570;2023-04-10T09:26:21;101726.59;;;13.62;50.84
75221;BME280;63802;53.232;6.570;2023-04-10T09:29:01;101747.97;;;13.72;49.83
75221;BME280;63802;53.232;6.570;2023-04-10T09:31:35;101726.44;;;13.35;50.30
75221;BME280;63802;53.232;6.570;2023-04-10T09:36:37;101714.47;;;13.43;50.31
75221;BME280;63802;53.232;6.570;2023-04-10T09:39:04;101711.75;;;13.63;50.71
75221;BME280;63802;53.232;6.570;2023-04-10T09:41:30;101709.00;;;13.82;49.34
75221;BME280;63802;53.232;6.570;2023-04-10T09:44:07;101708.97;;;14.01;49.61
75221;BME280;63802;53.232;6.570;2023-04-10T09:46:36;101693.06;;;14.10;49.10
75221;BME280;63802;53.232;6.570;2023-04-10T09:49:05;101697.63;;;14.25;47.83
75221;BME280;63802;53.232;6.570;2023-04-10T09:51:32;101691.94;;;14.34;48.22
75221;BME280;63802;53.232;6.570;2023-04-10T09:54:02;101695.84;;;14.59;48.39
75221;BME280;63802;53.232;6.570;2023-04-10T09:56:29;101687.91;;;14.76;48.37
75221;BME280;63802;53.232;6.570;2023-04-10T09:58:57;101669.78;;;14.72;47.34
75221;BME280;63802;53.232;6.570;2023-04-10T10:01:27;101671.00;;;14.74;47.10
75221;BME280;63802;53.232;6.570;2023-04-10T10:03:54;101663.25;;;15.10;47.38
75221;BME280;63802;53.232;6.570;2023-04-10T10:06:23;101673.59;;;15.20;46.49
75221;BME280;63802;53.232;6.570;2023-04-10T10:08:51;101639.91;;;15.26;46.45
75221;BME280;63802;53.232;6.570;2023-04-10T10:11:22;101644.28;;;15.31;45.85
75221;BME280;63802;53.232;6.570;2023-04-10T10:13:52;101632.19;;;15.39;45.73
75221;BME280;63802;53.232;6.570;2023-04-10T10:16:42;101640.09;;;16.18;44.89
75221;BME280;63802;53.232;6.570;2023-04-10T10:19:20;101623.00;;;15.58;44.51
75221;BME280;63802;53.232;6.570;2023-04-10T10:21:51;101631.19;;;14.91;45.31
75221;BME280;63802;53.232;6.570;2023-04-10T10:24:19;101622.34;;;15.05;46.19
75221;BME280;63802;53.232;6.570;2023-04-10T10:26:46;101623.47;;;15.33;45.93
75221;BME280;63802;53.232;6.570;2023-04-10T10:29:14;101590.72;;;15.51;44.80
75221;BME280;63802;53.232;6.570;2023-04-10T10:31:44;101606.53;;;15.61;44.83
75221;BME280;63802;53.232;6.570;2023-04-10T10:34:11;101605.50;;;15.39;45.40
75221;BME280;63802;53.232;6.570;2023-04-10T10:36:38;101596.69;;;15.27;45.91
75221;BME280;63802;53.232;6.570;2023-04-10T10:44:46;101581.09;;;15.38;45.58
75221;BME280;63802;53.232;6.570;2023-04-10T10:47:19;101582.06;;;15.49;45.37
75221;BME280;63802;53.232;6.570;2023-04-10T10:49:58;101573.03;;;15.19;45.53
75221;BME280;63802;53.232;6.570;2023-04-10T10:52:43;101592.63;;;15.14;45.04
75221;BME280;63802;53.232;6.570;2023-04-10T10:57:54;101546.63;;;14.81;45.87
75221;BME280;63802;53.232;6.570;2023-04-10T11:00:25;101540.91;;;14.93;45.52
75221;BME280;63802;53.232;6.570;2023-04-10T11:05:51;101550.47;;;14.73;45.28
75221;BME280;63802;53.232;6.570;2023-04-10T11:11:03;101548.53;;;14.47;45.98
75221;BME280;63802;53.232;6.570;2023-04-10T11:13:37;101533.94;;;14.69;47.25
75221;BME280;63802;53.232;6.570;2023-04-10T11:16:04;101512.78;;;14.73;45.66
75221;BME280;63802;53.232;6.570;2023-04-10T11:21:15;101497.88;;;15.04;45.06
75221;BME280;63802;53.232;6.570;2023-04-10T11:31:46;101474.91;;;15.26;45.57
75221;BME280;63802;53.232;6.570;2023-04-10T11:34:21;101487.56;;;15.38;45.52
75221;BME280;63802;53.232;6.570;2023-04-10T11:36:48;101468.81;;;14.73;45.91
75221;BME280;63802;53.232;6.570;2023-04-10T11:39:15;101484.28;;;15.22;45.89
75221;BME280;63802;53.232;6.570;2023-04-10T11:41:45;101470.59;;;15.25;45.76
75221;BME280;63802;53.232;6.570;2023-04-10T11:46:52;101448.53;;;15.22;46.39
75221;BME280;63802;53.232;6.570;2023-04-10T11:49:20;101456.66;;;15.08;45.98
75221;BME280;63802;53.232;6.570;2023-04-10T11:51:48;101426.03;;;15.09;45.76
75221;BME280;63802;53.232;6.570;2023-04-10T11:54:17;101449.19;;;15.45;45.67
75221;BME280;63802;53.232;6.570;2023-04-10T11:56:57;101446.56;;;15.59;45.98
75221;BME280;63802;53.232;6.570;2023-04-10T11:59:23;101441.34;;;15.47;45.18
75221;BME280;63802;53.232;6.570;2023-04-10T12:01:50;101412.91;;;15.36;45.05
75221;BME280;63802;53.232;6.570;2023-04-10T12:04:21;101429.69;;;15.68;45.00
75221;BME280;63802;53.232;6.570;2023-04-10T12:06:49;101421.19;;;15.83;44.23
75221;BME280;63802;53.232;6.570;2023-04-10T12:09:17;101403.88;;;15.86;43.93
75221;BME280;63802;53.232;6.570;2023-04-10T12:11:57;101402.28;;;15.78;44.62
75221;BME280;63802;53.232;6.570;2023-04-10T12:16:59;101373.78;;;15.50;44.65
75221;BME280;63802;53.232;6.570;2023-04-10T12:19:29;101395.34;;;16.05;44.62
75221;BME280;63802;53.232;6.570;2023-04-10T12:21:57;101379.00;;;16.48;43.94
75221;BME280;63802;53.232;6.570;2023-04-10T12:24:43;101392.09;;;16.72;43.40
75221;BME280;63802;53.232;6.570;2023-04-10T12:27:25;101376.34;;;16.83;42.89
75221;BME280;63802;53.232;6.570;2023-04-10T12:29:53;101382.72;;;17.58;42.44
75221;BME280;63802;53.232;6.570;2023-04-10T12:32:21;101361.78;;;17.42;41.66
75221;BME280;63802;53.232;6.570;2023-04-10T12:34:57;101375.22;;;17.19;42.10
75221;BME280;63802;53.232;6.570;2023-04-10T12:37:46;101362.97;;;16.82;42.45
75221;BME280;63802;53.232;6.570;2023-04-10T12:40:12;101336.97;;;16.75;42.57
75221;BME280;63802;53.232;6.570;2023-04-10T12:42:41;101350.34;;;16.70;42.64
75221;BME280;63802;53.232;6.570;2023-04-10T12:45:08;101351.84;;;16.50;42.83
75221;BME280;63802;53.232;6.570;2023-04-10T12:47:45;101341.97;;;16.31;43.10
75221;BME280;63802;53.232;6.570;2023-04-10T12:50:16;101345.09;;;16.30;43.45
75221;BME280;63802;53.232;6.570;2023-04-10T12:53:02;101331.66;;;16.14;43.87
75221;BME280;63802;53.232;6.570;2023-04-10T12:55:27;101334.03;;;16.23;44.18
75221;BME280;63802;53.232;6.570;2023-04-10T12:57:53;101317.84;;;16.00;44.32
75221;BME280;63802;53.232;6.570;2023-04-10T13:00:21;101314.94;;;15.68;45.27
75221;BME280;63802;53.232;6.570;2023-04-10T13:02:50;101326.81;;;15.83;45.52
75221;BME280;63802;53.232;6.570;2023-04-10T13:05:15;101328.75;;;15.82;45.46
75221;BME280;63802;53.232;6.570;2023-04-10T13:07:41;101300.88;;;15.87;45.43
75221;BME280;63802;53.232;6.570;2023-04-10T13:10:07;101301.56;;;15.70;45.67
75221;BME280;63802;53.232;6.570;2023-04-10T13:12:36;101276.88;;;15.84;45.38
75221;BME280;63802;53.232;6.570;2023-04-10T13:15:07;101284.28;;;15.73;45.80
75221;BME280;63802;53.232;6.570;2023-04-10T13:17:33;101287.03;;;15.73;46.03
75221;BME280;63802;53.232;6.570;2023-04-10T13:19:59;101253.13;;;15.52;46.32
75221;BME280;63802;53.232;6.570;2023-04-10T13:22:24;101283.47;;;15.69;46.39
75221;BME280;63802;53.232;6.570;2023-04-10T13:24:53;101249.47;;;15.37;46.82
75221;BME280;63802;53.232;6.570;2023-04-10T13:27:19;101272.06;;;15.67;46.88
75221;BME280;63802;53.232;6.570;2023-04-10T13:29:45;101256.19;;;15.43;47.07
75221;BME280;63802;53.232;6.570;2023-04-10T13:32:11;101240.84;;;15.35;47.40
75221;BME280;63802;53.232;6.570;2023-04-10T13:34:36;101229.97;;;15.56;47.26
75221;BME280;63802;53.232;6.570;2023-04-10T13:37:02;101245.75;;;15.66;47.35
75221;BME280;63802;53.232;6.570;2023-04-10T13:39:29;101219.69;;;15.46;46.98
75221;BME280;63802;53.232;6.570;2023-04-10T13:41:56;101237.44;;;15.52;47.56
75221;BME280;63802;53.232;6.570;2023-04-10T13:44:22;101211.84;;;15.48;47.46